KAUM

Austin Municipal Airport

Austin, Minnesota, USA
METAR KAUM 201415Z AUTO 32009G14KT 1 3/4SM RA OVC004 18/17 A2980 RMK AO2
Observed Flight Rules
Jul-20 @ 14:15 UTC (19 minutes ago) Instrument Flight Rules
Wind Visibility Clouds Conditions
320° at 9 knots
 Gusting to 14 knots
1 3/4 miles
  • Overcast at 400' AGL
  • Rain
Temperatures Readings
Current 18°C / 64°F
Dewpoint 17°C / 63°F
Humidity 94%
Altimeter 29.8" Hg
Pressure 1009 hPa
Elevation 375
METAR KAUM 201415Z AUTO 32009G14KT 1 3/4SM RA OVC004 18/17 A2980 RMK AO2
Observed Flight Rules
Jul-20 @ 14:15 UTC
(19 minutes ago)
LIFR
Wind Visibility
320° at 9 knots
 Gusting to 14 knots
1 3/4 miles
Clouds
  • Overcast at 400' AGL
Conditions
  • Rain
Temperature Dewpoint
18°C / 64°F 17°C / 63°F
Humidity Altimeter Pressure
94% 29.8" Hg 1009 hPa